Pagrindinis puslapis
METAR-TAF:

METAR-TAF

Oro uostai :

Coles County Memorial Airport

Mattoon-Charleston, Ilinojus, Jungtinės Amerikos Valstijos

platuma: 39-28-41N, ilguma: 088-16-45W, Aukštis: 220 m

Dabartinis oras

Ataskaita buvo paskelbta 44 minutes, ne 09:53 UTC
Vėjas 8 kt iš Vakarų/Pietvakarių su gūsio iki 16 kt
Temperatūra 1°C
Drėgmė 86%
Slėgis 1012 hPa
Matomumas: 4.8 km
Apsiniaukę ne aukštis 600 ft
sniegas, rūkana

METAR: KMTO 250953Z AUTO 25008G16KT 3SM -SN BR OVC006 01/M01 A2989 RMK AO2 SNB04 SLP128 P0000 T00061006

Laikas: 04:37 (10:37 UTC)


TAF: trūkstamas

Orai ataskaitas ir orų prognozės (METAR, TAF).

turimą stotys yra geltonos ir raudonos taškus žemėlapyje.

Perkelti pele per norėdami pamatyti stoties vardą.

Tada spustelėkite, norėdami matyti oro stebėjimo ir prognozės.

Norėdami pakeisti žemėlapį: spustelėkite ant žalios mygtukų su juodo kryžiaus žemyn,; žalią mygtuką su brūkšneliu, jei norite nutolinti; arba žalių rodyklių gretimoms žemėlapius.


METAR-TAF: